Time;durP1;ratioP1;P1;durP2;ratioP2;P2;SDS_P1;SDS_P2;PMS_P1;PMS_P2;Temp;Humidity;BMP_temperature;BMP_pressure;BME280_temperature;BME280_humidity;BME280_pressure;Samples;Min_cycle;Max_cycle;Signal;HPM_P1;HPM_P2
2023/05/03 00:01:32;;;;;;;8.95;2.17;;;;;;;5.71;98.11;102056.47;4930309;29;20055;-68
2023/05/03 00:03:59;;;;;;;11.20;2.45;;;;;;;5.63;100.00;102057.91;4934225;29;20048;-68
2023/05/03 00:06:25;;;;;;;6.18;2.08;;;;;;;5.68;99.34;102058.47;4933196;29;20044;-69
2023/05/03 00:08:52;;;;;;;7.28;2.13;;;;;;;5.70;97.20;102057.44;4933388;29;20398;-68
2023/05/03 00:11:20;;;;;;;10.95;2.28;;;;;;;5.65;98.32;102056.84;4933389;29;20056;-69
2023/05/03 00:13:46;;;;;;;10.82;2.60;;;;;;;5.52;99.76;102058.56;4931076;29;20082;-68
2023/05/03 00:16:13;;;;;;;12.07;2.70;;;;;;;5.53;99.70;102058.50;4930195;29;20398;-68
2023/05/03 00:18:39;;;;;;;13.43;2.53;;;;;;;5.52;99.14;102058.56;4929902;29;20084;-68
2023/05/03 00:21:06;;;;;;;11.35;3.03;;;;;;;5.56;98.57;102064.56;4931019;29;20048;-69
2023/05/03 00:23:33;;;;;;;8.82;2.63;;;;;;;5.53;99.62;102060.31;4931023;29;20048;-68
2023/05/03 00:25:59;;;;;;;10.85;2.97;;;;;;;5.41;100.00;102053.91;4930622;29;20170;-69
2023/05/03 00:28:26;;;;;;;10.70;2.25;;;;;;;5.38;100.00;102066.53;4929846;29;20060;-69
2023/05/03 00:30:52;;;;;;;10.40;2.22;;;;;;;5.40;100.00;102059.34;4929864;29;20075;-68
2023/05/03 00:33:20;;;;;;;6.82;2.28;;;;;;;5.37;100.00;102059.53;4931920;29;20051;-69
2023/05/03 00:35:46;;;;;;;15.02;2.90;;;;;;;5.34;100.00;102060.56;4936848;29;20080;-69
2023/05/03 00:38:14;;;;;;;5.75;2.05;;;;;;;5.26;100.00;102050.38;4936594;29;20050;-68
2023/05/03 00:40:40;;;;;;;17.95;3.05;;;;;;;5.08;100.00;102058.63;4931472;29;20063;-69
2023/05/03 00:43:10;;;;;;;10.88;2.45;;;;;;;5.11;100.00;102059.31;4931432;29;20129;-68
2023/05/03 00:45:37;;;;;;;10.93;2.22;;;;;;;4.98;100.00;102058.31;4931580;29;20048;-70
2023/05/03 00:48:03;;;;;;;11.43;2.17;;;;;;;4.99;100.00;102062.69;4931499;29;20052;-67
2023/05/03 00:50:30;;;;;;;7.72;2.40;;;;;;;4.99;100.00;102054.69;4931176;29;20074;-67
2023/05/03 00:52:57;;;;;;;10.32;2.50;;;;;;;5.03;100.00;102056.22;4930614;29;20116;-69
2023/05/03 00:55:25;;;;;;;11.90;2.78;;;;;;;4.95;100.00;102053.19;4931271;29;20044;-70
2023/05/03 00:57:51;;;;;;;12.75;2.35;;;;;;;4.99;100.00;102054.69;4925915;29;20079;-70
2023/05/03 01:00:19;;;;;;;6.40;2.28;;;;;;;4.97;100.00;102048.59;4930812;29;20048;-69
2023/05/03 01:02:45;;;;;;;8.27;2.25;;;;;;;4.91;100.00;102049.00;4930739;29;20084;-68
2023/05/03 01:09:16;;;;;;;9.18;3.15;;;;;;;4.90;100.00;102058.78;4931199;29;20068;-68
2023/05/03 01:12:07;;;;;;;7.20;1.92;;;;;;;4.88;100.00;102052.69;4931931;29;20097;-70
2023/05/03 01:14:59;;;;;;;11.87;3.03;;;;;;;4.81;100.00;102059.31;4931296;29;20108;-70
2023/05/03 01:17:33;;;;;;;10.35;2.50;;;;;;;4.76;100.00;102051.63;4921859;29;20552;-70
2023/05/03 01:20:07;;;;;;;14.07;2.42;;;;;;;4.71;100.00;102051.00;4930338;29;20048;-70
2023/05/03 01:22:48;;;;;;;15.65;3.10;;;;;;;4.72;100.00;102057.19;4929913;29;20139;-71
2023/05/03 01:25:15;;;;;;;14.82;3.15;;;;;;;4.69;100.00;102058.19;4930633;29;20222;-69
2023/05/03 01:27:42;;;;;;;6.30;1.85;;;;;;;4.62;100.00;102072.78;4930861;29;20452;-68
2023/05/03 01:30:11;;;;;;;5.45;2.05;;;;;;;4.60;100.00;102066.72;4930714;29;20143;-69
2023/05/03 01:32:56;;;;;;;5.05;2.22;;;;;;;4.57;100.00;102061.59;4920998;29;20047;-70
2023/05/03 01:35:31;;;;;;;15.43;2.40;;;;;;;4.55;100.00;102068.78;4930520;29;20052;-69
2023/05/03 01:37:59;;;;;;;9.82;2.35;;;;;;;4.54;100.00;102062.63;4931162;29;20068;-68
2023/05/03 01:40:28;;;;;;;12.88;2.45;;;;;;;4.52;100.00;102064.53;4931280;29;20103;-70
2023/05/03 01:42:55;;;;;;;5.53;1.88;;;;;;;4.51;100.00;102059.28;4931233;29;20051;-69
2023/05/03 01:45:22;;;;;;;12.10;3.00;;;;;;;4.46;100.00;102069.34;4930946;29;20048;-69
2023/05/03 01:47:49;;;;;;;10.60;2.30;;;;;;;4.48;100.00;102068.28;4931413;29;20056;-68
2023/05/03 01:50:15;;;;;;;12.65;2.20;;;;;;;4.39;100.00;102067.97;4931665;29;20052;-71
2023/05/03 01:52:43;;;;;;;7.25;1.83;;;;;;;4.39;100.00;102062.66;4931709;29;20063;-69
2023/05/03 01:55:10;;;;;;;13.13;2.50;;;;;;;4.37;100.00;102067.16;4928385;29;20059;-70
2023/05/03 01:57:37;;;;;;;10.18;2.00;;;;;;;4.32;100.00;102070.94;4926910;29;20067;-69
2023/05/03 02:00:04;;;;;;;8.02;2.13;;;;;;;4.28;100.00;102063.22;4931239;29;20120;-70
2023/05/03 02:02:31;;;;;;;14.70;2.50;;;;;;;4.25;100.00;102069.56;4926536;29;20080;-70
2023/05/03 02:04:57;;;;;;;13.85;2.78;;;;;;;4.22;100.00;102069.72;4931120;29;20055;-69
2023/05/03 02:07:24;;;;;;;6.50;1.60;;;;;;;4.17;100.00;102065.59;4931304;29;20115;-69
2023/05/03 02:09:51;;;;;;;11.05;2.28;;;;;;;4.15;100.00;102068.38;4929596;29;20497;-67
2023/05/03 02:12:17;;;;;;;12.43;2.58;;;;;;;4.10;100.00;102062.44;4913801;29;20501;-68
2023/05/03 02:14:44;;;;;;;12.07;1.90;;;;;;;4.14;100.00;102069.31;4896830;29;20066;-68
2023/05/03 02:17:10;;;;;;;12.00;2.20;;;;;;;4.07;100.00;102065.25;4913719;29;20051;-68
2023/05/03 02:19:37;;;;;;;8.68;1.88;;;;;;;4.02;100.00;102070.84;4914104;29;20133;-68
2023/05/03 02:22:03;;;;;;;14.23;2.45;;;;;;;4.01;100.00;102073.59;4914112;29;20108;-67
2023/05/03 02:24:30;;;;;;;10.15;2.22;;;;;;;4.03;100.00;102077.84;4912543;29;20052;-68
2023/05/03 02:26:57;;;;;;;11.20;2.33;;;;;;;4.06;100.00;102076.84;4920173;29;20108;-70
2023/05/03 02:29:23;;;;;;;13.43;2.15;;;;;;;3.96;100.00;102080.94;4930814;29;20132;-70
2023/05/03 02:31:50;;;;;;;5.88;2.13;;;;;;;3.98;100.00;102084.38;4933353;29;20060;-69
2023/05/03 02:34:16;;;;;;;14.85;2.15;;;;;;;3.95;100.00;102082.72;4933400;29;20075;-69
2023/05/03 02:36:42;;;;;;;8.20;2.20;;;;;;;3.92;100.00;102082.03;4933213;29;20059;-69
2023/05/03 02:39:09;;;;;;;8.07;2.40;;;;;;;3.87;100.00;102095.56;4933016;29;20058;-69
2023/05/03 02:41:36;;;;;;;9.77;2.28;;;;;;;3.80;100.00;102095.06;4933127;29;20054;-69
2023/05/03 02:44:03;;;;;;;9.70;2.47;;;;;;;3.80;100.00;102091.53;4933413;29;20052;-69
2023/05/03 02:46:30;;;;;;;9.65;2.30;;;;;;;3.78;100.00;102088.97;4934298;29;20127;-69
2023/05/03 02:48:56;;;;;;;10.32;1.65;;;;;;;3.77;100.00;102089.06;4933868;29;20111;-69
2023/05/03 02:51:23;;;;;;;10.30;2.50;;;;;;;3.77;100.00;102091.72;4933849;29;20034;-69
2023/05/03 02:53:49;;;;;;;11.02;2.53;;;;;;;3.69;100.00;102094.78;4933427;29;20096;-69
2023/05/03 02:56:16;;;;;;;6.60;2.03;;;;;;;3.66;100.00;102094.94;4933480;29;20047;-69
2023/05/03 02:58:42;;;;;;;11.40;2.55;;;;;;;3.63;100.00;102092.44;4933817;29;20066;-69
2023/05/03 03:01:10;;;;;;;11.40;2.22;;;;;;;3.67;100.00;102103.75;4934495;29;20642;-69
2023/05/03 03:03:36;;;;;;;13.90;2.83;;;;;;;3.66;100.00;102105.56;4933482;29;20048;-69
2023/05/03 03:06:03;;;;;;;6.95;2.20;;;;;;;3.58;100.00;102103.28;4933608;29;20048;-69
2023/05/03 03:08:30;;;;;;;12.27;3.20;;;;;;;3.59;100.00;102106.81;4935035;29;20036;-69
2023/05/03 03:10:56;;;;;;;12.90;2.47;;;;;;;3.55;100.00;102103.47;4933988;29;20068;-69
2023/05/03 03:13:23;;;;;;;13.60;2.05;;;;;;;3.59;100.00;102106.81;4934075;29;20140;-69
2023/05/03 03:15:49;;;;;;;13.13;2.13;;;;;;;3.56;100.00;102105.19;4934848;29;20032;-69
2023/05/03 03:18:16;;;;;;;13.63;2.58;;;;;;;3.54;100.00;102106.19;4926345;29;20054;-69
2023/05/03 03:20:45;;;;;;;8.75;1.98;;;;;;;3.60;100.00;102101.41;4934242;29;20642;-69
2023/05/03 03:23:11;;;;;;;10.85;2.30;;;;;;;3.53;100.00;102108.00;4934038;29;20079;-68
2023/05/03 03:25:38;;;;;;;13.43;2.65;;;;;;;3.51;100.00;102114.31;4917576;29;20112;-69
2023/05/03 03:28:04;;;;;;;14.23;2.45;;;;;;;3.47;100.00;102112.75;4934144;29;20048;-69
2023/05/03 03:30:31;;;;;;;9.80;2.53;;;;;;;3.42;100.00;102118.31;4940073;23;20138;-69
2023/05/03 03:32:57;;;;;;;8.90;2.30;;;;;;;3.39;100.00;102124.63;4933499;29;20048;-69
2023/05/03 03:35:24;;;;;;;18.45;2.70;;;;;;;3.44;100.00;102121.72;4933162;29;20052;-69
2023/05/03 03:37:52;;;;;;;9.75;2.63;;;;;;;3.47;100.00;102126.03;4927289;29;20063;-69
2023/05/03 03:40:19;;;;;;;11.45;2.55;;;;;;;3.42;100.00;102125.41;4936169;29;20054;-69
2023/05/03 03:42:45;;;;;;;16.48;2.78;;;;;;;3.41;100.00;102131.63;4935692;29;20052;-69
2023/05/03 03:45:12;;;;;;;11.85;2.58;;;;;;;3.38;100.00;102125.56;4936738;29;20047;-70
2023/05/03 03:47:38;;;;;;;8.38;2.20;;;;;;;3.29;100.00;102127.84;4936890;29;20115;-70
2023/05/03 03:50:05;;;;;;;11.05;3.10;;;;;;;3.35;100.00;102136.34;4935196;29;20081;-70
2023/05/03 03:52:32;;;;;;;16.45;2.78;;;;;;;3.30;100.00;102135.69;4936076;29;20486;-70
2023/05/03 03:54:58;;;;;;;13.32;2.53;;;;;;;3.28;100.00;102137.59;4933564;29;20048;-70
2023/05/03 03:57:28;;;;;;;10.52;2.42;;;;;;;3.29;100.00;102139.28;4932946;29;20058;-69
2023/05/03 03:59:56;;;;;;;13.13;2.45;;;;;;;3.33;100.00;102146.16;4920805;29;20086;-69
2023/05/03 04:02:23;;;;;;;12.05;2.65;;;;;;;3.31;100.00;102148.03;4946277;29;20054;-69
2023/05/03 04:04:50;;;;;;;11.00;2.50;;;;;;;3.25;100.00;102143.03;4954856;29;20047;-69
2023/05/03 04:07:16;;;;;;;12.60;2.00;;;;;;;3.20;100.00;102149.50;4953924;29;20082;-69
2023/05/03 04:09:43;;;;;;;16.13;2.60;;;;;;;3.23;100.00;102149.34;4955164;29;20065;-69
2023/05/03 04:12:10;;;;;;;15.68;2.03;;;;;;;3.29;100.00;102155.22;4954108;29;20056;-69
2023/05/03 04:14:36;;;;;;;11.13;3.10;;;;;;;3.27;100.00;102150.91;4953177;29;20054;-69
2023/05/03 04:17:03;;;;;;;15.70;2.72;;;;;;;3.28;100.00;102152.66;4955992;29;20048;-69
2023/05/03 04:19:31;;;;;;;12.57;2.90;;;;;;;3.33;100.00;102155.91;4954870;29;20058;-69
2023/05/03 04:21:57;;;;;;;7.50;2.25;;;;;;;3.47;100.00;102161.38;4953852;29;20134;-68
2023/05/03 04:24:24;;;;;;;16.20;2.90;;;;;;;3.44;100.00;102163.31;4954464;29;20048;-69
2023/05/03 04:26:50;;;;;;;13.00;2.50;;;;;;;3.54;100.00;102164.56;4954884;29;20092;-69
2023/05/03 04:29:18;;;;;;;12.18;2.45;;;;;;;3.55;100.00;102172.47;4954370;29;20111;-69
2023/05/03 04:31:45;;;;;;;15.15;3.28;;;;;;;3.63;100.00;102180.88;4968276;23;20113;-65
2023/05/03 04:34:14;;;;;;;12.55;2.38;;;;;;;3.68;100.00;102185.94;4915254;29;20061;-65
2023/05/03 04:36:41;;;;;;;10.48;2.88;;;;;;;3.81;100.00;102188.81;4914569;29;20165;-66
2023/05/03 04:39:10;;;;;;;12.73;3.17;;;;;;;3.86;100.00;102181.44;4908803;29;20052;-66
2023/05/03 04:41:36;;;;;;;13.18;2.97;;;;;;;3.93;100.00;102176.69;4914452;29;20417;-67
2023/05/03 04:44:04;;;;;;;18.27;4.03;;;;;;;3.94;100.00;102189.88;4929617;29;20076;-68
2023/05/03 04:46:31;;;;;;;12.98;3.40;;;;;;;4.01;100.00;102180.66;4933811;29;20064;-71
2023/05/03 04:48:57;;;;;;;11.98;2.60;;;;;;;4.13;100.00;102188.91;4932418;29;20044;-69
2023/05/03 04:51:24;;;;;;;22.02;3.58;;;;;;;4.12;100.00;102181.88;4933041;29;20052;-69
2023/05/03 04:53:50;;;;;;;13.35;3.17;;;;;;;4.19;100.00;102189.44;4930589;29;20051;-67
2023/05/03 04:56:19;;;;;;;21.67;3.53;;;;;;;4.21;100.00;102195.53;4931005;29;20182;-68
2023/05/03 04:58:45;;;;;;;10.65;2.50;;;;;;;4.29;100.00;102200.44;4931985;29;20052;-70
2023/05/03 05:01:13;;;;;;;18.63;2.65;;;;;;;4.33;100.00;102199.31;4923534;29;20531;-68
2023/05/03 05:03:39;;;;;;;14.10;4.00;;;;;;;4.30;100.00;102202.97;4949064;29;20083;-68
2023/05/03 05:06:08;;;;;;;9.65;3.47;;;;;;;4.32;100.00;102206.44;4951153;29;20063;-70
2023/05/03 05:08:35;;;;;;;54.20;7.07;;;;;;;4.39;100.00;102199.03;4949323;29;20126;-67
2023/05/03 05:11:05;;;;;;;15.32;3.83;;;;;;;4.38;100.00;102205.25;4915231;29;20126;-67
2023/05/03 05:13:31;;;;;;;20.65;3.70;;;;;;;4.48;100.00;102198.50;4914467;29;20048;-67
2023/05/03 05:15:58;;;;;;;14.82;2.95;;;;;;;4.57;100.00;102198.00;4915303;29;20412;-66
2023/05/03 05:18:24;;;;;;;17.27;3.55;;;;;;;4.64;100.00;102205.63;4913885;29;20048;-67
2023/05/03 05:20:51;;;;;;;16.80;3.67;;;;;;;4.58;100.00;102206.81;4915221;29;20052;-68
2023/05/03 05:23:18;;;;;;;188.52;28.90;;;;;;;4.42;100.00;102200.66;4913880;29;20051;-68
2023/05/03 05:25:44;;;;;;;19.05;4.57;;;;;;;4.50;100.00;102209.06;4914354;29;20496;-67
2023/05/03 05:28:11;;;;;;;15.68;4.10;;;;;;;4.60;100.00;102209.41;4913046;29;20050;-66
2023/05/03 05:30:38;;;;;;;22.05;5.10;;;;;;;4.60;100.00;102209.41;4907113;29;20390;-68
2023/05/03 05:33:04;;;;;;;10.00;3.75;;;;;;;4.79;100.00;102213.59;4879941;29;20060;-66
2023/05/03 05:35:32;;;;;;;12.57;3.72;;;;;;;4.64;100.00;102217.13;4895383;29;20764;-66
2023/05/03 05:37:59;;;;;;;23.42;4.40;;;;;;;4.66;100.00;102220.56;4894564;29;20490;-67
2023/05/03 05:40:25;;;;;;;13.82;3.35;;;;;;;4.77;100.00;102219.97;4895066;29;20446;-69
2023/05/03 05:42:52;;;;;;;17.92;3.70;;;;;;;4.75;100.00;102229.81;4892498;29;20462;-68
2023/05/03 05:45:18;;;;;;;18.40;3.70;;;;;;;4.76;100.00;102229.75;4894728;29;20059;-68
2023/05/03 05:47:45;;;;;;;11.25;3.05;;;;;;;4.74;100.00;102225.44;4893705;29;20162;-68
2023/05/03 05:50:12;;;;;;;16.88;3.10;;;;;;;5.00;100.00;102227.47;4893377;29;20085;-68
2023/05/03 05:52:44;;;;;;;16.27;3.40;;;;;;;4.91;100.00;102219.19;4893926;29;20056;-68
2023/05/03 05:55:13;;;;;;;14.80;3.05;;;;;;;4.74;100.00;102228.09;4890033;29;20500;-68
2023/05/03 05:57:40;;;;;;;24.90;3.47;;;;;;;4.90;100.00;102234.28;4894210;29;20063;-67
2023/05/03 06:00:13;;;;;;;17.67;3.20;;;;;;;5.07;100.00;102229.81;4894464;29;20059;-68
2023/05/03 06:02:40;;;;;;;21.13;3.13;;;;;;;5.12;100.00;102235.72;4903038;29;20056;-68
2023/05/03 06:05:08;;;;;;;13.60;3.28;;;;;;;5.22;100.00;102232.44;4921663;29;20047;-70
2023/05/03 06:07:35;;;;;;;18.25;3.55;;;;;;;5.32;100.00;102232.78;4931831;29;20040;-71
2023/05/03 06:10:03;;;;;;;13.57;3.10;;;;;;;5.42;100.00;102238.41;4932688;29;20036;-70
2023/05/03 06:12:30;;;;;;;20.05;3.13;;;;;;;5.36;100.00;102238.78;4932596;29;20058;-70
2023/05/03 06:14:56;;;;;;;52.08;7.70;;;;;;;5.35;100.00;102245.03;4931132;29;20052;-69
2023/05/03 06:17:28;;;;;;;13.18;2.53;;;;;;;5.50;99.02;102234.34;4932212;29;20054;-69
2023/05/03 06:19:55;;;;;;;25.48;3.78;;;;;;;5.61;97.59;102244.38;4931777;29;20048;-70
2023/05/03 06:22:22;;;;;;;15.02;3.13;;;;;;;5.76;95.23;102242.59;4930645;29;20052;-70
2023/05/03 06:24:49;;;;;;;20.88;2.97;;;;;;;5.85;93.75;102244.72;4929133;29;20093;-69
2023/05/03 06:27:16;;;;;;;20.80;3.72;;;;;;;5.99;92.67;102255.41;4929244;29;20537;-70
2023/05/03 06:29:43;;;;;;;14.57;2.67;;;;;;;6.10;90.32;102254.75;4917768;29;20604;-70
2023/05/03 06:32:10;;;;;;;10.13;2.20;;;;;;;6.17;86.97;102255.22;4925345;29;20095;-69
2023/05/03 06:34:36;;;;;;;39.47;3.83;;;;;;;5.88;88.02;102260.53;4923141;29;20062;-69
2023/05/03 06:37:03;;;;;;;21.00;3.03;;;;;;;6.11;86.98;102253.78;4924459;29;20162;-69
2023/05/03 06:39:30;;;;;;;6.72;2.17;;;;;;;6.19;84.69;102251.53;4926702;29;20150;-70
2023/05/03 06:41:56;;;;;;;11.10;2.38;;;;;;;6.47;81.95;102250.69;4919224;29;20120;-70
2023/05/03 06:44:22;;;;;;;17.42;2.85;;;;;;;6.79;79.97;102252.28;4927902;29;20111;-69
2023/05/03 06:46:50;;;;;;;28.10;4.03;;;;;;;6.79;79.61;102252.28;4925974;29;20125;-70
2023/05/03 06:49:17;;;;;;;21.00;3.42;;;;;;;6.99;77.10;102262.53;4923288;29;20082;-69
2023/05/03 06:51:43;;;;;;;14.45;2.20;;;;;;;7.17;74.71;102253.31;4925043;29;20056;-69
2023/05/03 06:54:10;;;;;;;15.05;2.30;;;;;;;7.59;72.34;102256.75;4928189;29;20091;-70
2023/05/03 06:56:36;;;;;;;12.02;2.33;;;;;;;7.64;70.72;102253.81;4929075;29;20107;-70
2023/05/03 06:59:03;;;;;;;16.75;2.88;;;;;;;7.66;70.43;102255.38;4927030;29;20080;-70
2023/05/03 07:01:30;;;;;;;10.73;2.20;;;;;;;8.34;67.80;102250.78;4920975;29;20131;-66
2023/05/03 07:03:57;;;;;;;14.85;2.47;;;;;;;8.52;66.49;102254.81;4912343;29;20099;-68
2023/05/03 07:06:24;;;;;;;17.27;2.65;;;;;;;8.82;63.68;102250.91;4912576;29;20052;-67
2023/05/03 07:08:51;;;;;;;12.98;2.53;;;;;;;9.07;62.49;102250.81;4911983;29;20059;-69
2023/05/03 07:11:22;;;;;;;10.90;2.28;;;;;;;9.39;61.20;102260.97;4915134;29;20051;-68
2023/05/03 07:13:50;;;;;;;16.35;2.47;;;;;;;9.64;60.02;102261.81;4891139;29;20481;-68
2023/05/03 07:16:17;;;;;;;11.25;2.05;;;;;;;9.83;59.63;102258.59;4897066;29;20053;-68
2023/05/03 07:18:45;;;;;;;14.43;2.33;;;;;;;10.03;57.22;102255.22;4888758;29;20063;-68
2023/05/03 07:21:12;;;;;;;10.45;3.47;;;;;;;10.14;55.99;102247.19;4897129;29;20390;-68
2023/05/03 07:23:39;;;;;;;12.68;2.80;;;;;;;10.43;54.83;102252.94;4892392;29;20140;-68
2023/05/03 07:26:07;;;;;;;14.57;2.38;;;;;;;10.66;53.88;102244.91;4879652;29;20060;-69
2023/05/03 07:28:33;;;;;;;9.60;2.20;;;;;;;10.35;54.82;102250.00;4878698;29;20052;-68
2023/05/03 07:31:02;;;;;;;11.88;2.10;;;;;;;10.42;53.58;102245.03;4878668;29;20123;-68
2023/05/03 07:33:29;;;;;;;10.98;2.83;;;;;;;10.95;53.26;102248.75;4878632;29;20049;-67
2023/05/03 07:35:56;;;;;;;15.38;2.47;;;;;;;11.27;51.85;102241.72;4876507;29;20104;-67
2023/05/03 07:38:22;;;;;;;13.02;2.40;;;;;;;11.61;52.19;102251.34;4878806;29;20053;-68
2023/05/03 07:40:48;;;;;;;8.23;1.58;;;;;;;11.44;49.97;102249.22;4878431;29;20067;-68
2023/05/03 07:43:20;;;;;;;10.23;2.08;;;;;;;11.34;51.37;102243.75;4877299;29;20053;-69
2023/05/03 07:45:46;;;;;;;11.88;2.50;;;;;;;11.81;50.60;102241.63;4887170;29;20049;-67
2023/05/03 07:48:13;;;;;;;11.52;2.22;;;;;;;12.00;49.40;102240.88;4896033;29;20421;-69
2023/05/03 07:50:43;;;;;;;9.38;2.30;;;;;;;11.13;49.05;102240.16;4897198;29;20463;-69
2023/05/03 07:53:11;;;;;;;13.75;2.13;;;;;;;11.67;48.62;102232.03;4897048;29;20048;-69
2023/05/03 07:55:37;;;;;;;13.50;2.35;;;;;;;12.34;48.19;102237.94;4896575;29;20052;-69
2023/05/03 07:58:04;;;;;;;6.47;2.10;;;;;;;12.05;47.38;102243.19;4897571;29;20080;-69
2023/05/03 08:00:30;;;;;;;7.20;1.77;;;;;;;11.92;47.24;102238.00;4897249;29;20049;-69
2023/05/03 08:02:57;;;;;;;10.63;2.30;;;;;;;12.38;47.58;102234.88;4881740;29;20429;-69
2023/05/03 08:05:24;;;;;;;11.82;1.77;;;;;;;12.49;45.70;102231.22;4878169;29;20068;-69
2023/05/03 08:07:51;;;;;;;9.20;2.38;;;;;;;12.84;45.57;102233.47;4877988;29;20057;-69
2023/05/03 08:10:18;;;;;;;6.90;2.08;;;;;;;12.85;45.87;102235.16;4878037;29;20051;-68
2023/05/03 08:12:45;;;;;;;8.27;1.70;;;;;;;12.59;45.45;102225.84;4877880;29;20049;-68
2023/05/03 08:15:12;;;;;;;10.63;1.60;;;;;;;12.90;45.19;102232.06;4878579;29;20045;-69
2023/05/03 08:17:44;;;;;;;8.75;1.90;;;;;;;13.25;45.50;102219.91;4878766;29;20057;-69
2023/05/03 08:20:12;;;;;;;7.13;1.55;;;;;;;13.55;43.59;102225.16;4878263;29;20040;-69
2023/05/03 08:22:40;;;;;;;9.68;1.65;;;;;;;14.15;42.65;102227.63;4878327;29;20057;-70
2023/05/03 08:25:07;;;;;;;8.05;1.48;;;;;;;13.97;43.05;102222.13;4895600;29;20048;-69
2023/05/03 08:27:33;;;;;;;6.70;2.00;;;;;;;13.85;42.99;102220.63;4896019;29;20049;-70
2023/05/03 08:30:00;;;;;;;18.83;2.25;;;;;;;13.91;43.08;102220.03;4896565;29;20052;-70
2023/05/03 08:32:28;;;;;;;14.40;2.30;;;;;;;14.13;42.90;102224.22;4896681;29;20068;-70
2023/05/03 08:34:55;;;;;;;8.68;1.85;;;;;;;13.62;42.88;102222.72;4897015;29;20179;-68
2023/05/03 08:37:22;;;;;;;9.18;2.15;;;;;;;14.53;42.37;102220.34;4896750;29;20060;-69
2023/05/03 08:39:49;;;;;;;11.32;1.95;;;;;;;14.57;42.27;102218.22;4896127;29;20063;-69
2023/05/03 08:42:15;;;;;;;11.65;1.85;;;;;;;15.11;41.67;102214.63;4895918;29;20044;-69
2023/05/03 08:44:47;;;;;;;20.65;2.65;;;;;;;13.97;41.86;102221.28;4895652;29;20063;-69
2023/05/03 08:47:15;;;;;;;15.43;2.50;;;;;;;14.48;41.71;102217.25;4894603;29;20131;-71
2023/05/03 08:49:43;;;;;;;9.35;2.42;;;;;;;14.76;40.93;102226.25;4879890;29;20056;-70
2023/05/03 08:52:12;;;;;;;13.65;2.78;;;;;;;15.48;40.10;102230.69;4896630;29;20449;-70
2023/05/03 08:54:40;;;;;;;4.40;1.70;;;;;;;15.19;40.21;102228.22;4895854;29;20513;-69
2023/05/03 08:57:12;;;;;;;15.00;2.05;;;;;;;15.62;39.18;102223.03;4896630;29;20079;-69
2023/05/03 08:59:46;;;;;;;9.35;2.10;;;;;;;15.40;39.16;102227.94;4896817;29;20056;-71
2023/05/03 09:02:14;;;;;;;18.27;2.78;;;;;;;14.77;39.76;102230.63;4903753;29;20055;-71
2023/05/03 09:04:41;;;;;;;16.52;2.33;;;;;;;15.64;39.04;102232.72;4916059;29;20056;-70
2023/05/03 09:07:12;;;;;;;10.48;2.30;;;;;;;15.29;39.34;102230.00;4916122;29;20051;-71
2023/05/03 09:09:38;;;;;;;12.77;2.00;;;;;;;15.83;38.42;102231.66;4896575;29;20147;-71
2023/05/03 09:12:05;;;;;;;11.68;2.00;;;;;;;15.36;38.26;102231.94;4895137;29;20055;-70
2023/05/03 09:14:42;;;;;;;10.20;2.20;;;;;;;13.96;40.54;102233.06;4896230;29;20053;-70
2023/05/03 09:17:20;;;;;;;7.40;1.70;;;;;;;15.32;38.95;102235.09;4880451;29;20050;-70
2023/05/03 09:19:52;;;;;;;19.08;1.95;;;;;;;15.91;37.93;102228.16;4895917;29;20083;-70
2023/05/03 09:22:19;;;;;;;8.15;1.67;;;;;;;16.22;37.70;102222.25;4896316;29;20417;-67
2023/05/03 09:24:53;;;;;;;6.22;1.67;;;;;;;15.86;38.39;102228.66;4895886;29;20053;-69
2023/05/03 09:27:20;;;;;;;13.70;2.08;;;;;;;16.95;36.85;102233.41;4896582;29;20124;-70
2023/05/03 09:29:47;;;;;;;9.23;2.17;;;;;;;16.52;36.95;102232.59;4895705;29;20055;-71
2023/05/03 09:32:14;;;;;;;11.05;2.30;;;;;;;15.49;38.86;102234.25;4895494;29;20054;-68
2023/05/03 09:34:42;;;;;;;10.43;1.98;;;;;;;16.01;38.05;102228.91;4895904;29;20052;-68
2023/05/03 09:37:09;;;;;;;8.45;1.70;;;;;;;16.20;37.85;102233.28;4897156;29;20044;-67
2023/05/03 09:39:35;;;;;;;9.18;1.95;;;;;;;16.80;36.27;102221.53;4894632;29;20409;-68
2023/05/03 09:42:13;;;;;;;6.25;1.60;;;;;;;16.71;35.80;102217.09;4896348;29;20052;-71
2023/05/03 09:44:54;;;;;;;11.40;2.67;;;;;;;16.77;35.87;102220.00;4896925;29;20116;-67
2023/05/03 09:47:23;;;;;;;11.57;2.27;;;;;;;17.40;35.10;102226.72;4893823;29;20045;-67
2023/05/03 09:49:50;;;;;;;6.53;1.50;;;;;;;17.13;34.89;102217.88;4896781;29;20067;-70
2023/05/03 09:52:16;;;;;;;8.35;2.03;;;;;;;16.51;36.25;102222.78;4896046;29;20067;-68
2023/05/03 09:54:43;;;;;;;10.38;1.80;;;;;;;15.70;36.91;102225.81;4896552;29;20051;-70
2023/05/03 09:57:13;;;;;;;7.35;1.48;;;;;;;14.57;38.71;102216.38;4889211;29;20061;-67
2023/05/03 09:59:41;;;;;;;11.20;2.15;;;;;;;15.15;38.63;102224.13;4896339;29;20417;-67
2023/05/03 10:02:07;;;;;;;11.63;2.30;;;;;;;16.70;35.68;102221.66;4885968;29;20556;-67
2023/05/03 10:04:55;;;;;;;6.53;1.60;;;;;;;16.42;35.01;102215.59;4913662;29;20062;-70
2023/05/03 10:07:27;;;;;;;6.18;1.48;;;;;;;16.13;35.53;102211.41;4914828;29;20425;-68
2023/05/03 10:09:56;;;;;;;11.10;1.90;;;;;;;16.85;35.04;102216.44;4904881;29;20051;-68
2023/05/03 10:12:24;;;;;;;6.32;1.80;;;;;;;17.64;34.28;102216.91;4914852;29;20040;-69
2023/05/03 10:14:53;;;;;;;10.85;2.00;;;;;;;17.68;33.78;102212.81;4914415;29;20048;-69
2023/05/03 10:17:30;;;;;;;13.70;2.20;;;;;;;17.24;34.65;102214.00;4914482;29;20059;-69
2023/05/03 10:20:22;;;;;;;10.93;2.00;;;;;;;19.19;33.00;102209.03;4913687;29;20036;-69
2023/05/03 10:23:04;;;;;;;14.80;2.13;;;;;;;18.27;32.80;102207.97;4914022;29;20059;-69
2023/05/03 10:25:33;;;;;;;7.80;1.75;;;;;;;18.60;31.85;102203.25;4914537;29;20062;-69
2023/05/03 10:28:07;;;;;;;8.70;2.05;;;;;;;18.10;32.74;102209.88;4914379;29;20509;-68
2023/05/03 10:30:38;;;;;;;8.57;1.85;;;;;;;16.61;34.66;102209.97;4914433;29;20055;-70
2023/05/03 10:33:13;;;;;;;;;;;;;;;16.96;33.15;102210.72;4914761;29;20067;-70
2023/05/03 10:35:53;;;;;;;7.82;1.80;;;;;;;16.62;33.73;102206.22;4914493;29;20343;-70
2023/05/03 10:38:22;;;;;;;9.18;2.30;;;;;;;16.08;34.30;102202.06;4913805;29;20048;-69
2023/05/03 10:40:49;;;;;;;9.80;2.20;;;;;;;15.81;35.08;102194.94;4913444;29;20052;-70
2023/05/03 10:43:28;;;;;;;6.55;1.85;;;;;;;16.71;34.51;102200.81;4910084;29;20148;-70
2023/05/03 10:46:02;;;;;;;8.43;1.60;;;;;;;16.88;34.77;102195.28;4913434;29;20048;-70
2023/05/03 10:48:30;;;;;;;10.02;2.13;;;;;;;16.47;35.15;102191.59;4911998;29;20116;-70
2023/05/03 10:51:17;;;;;;;11.60;2.25;;;;;;;16.28;35.08;102202.66;4913506;29;20147;-69
2023/05/03 10:53:44;;;;;;;10.85;2.05;;;;;;;16.29;35.10;102193.53;4914568;29;20056;-70
2023/05/03 10:56:14;;;;;;;7.65;2.28;;;;;;;15.66;35.99;102190.09;4915249;29;20493;-70
2023/05/03 10:58:43;;;;;;;11.20;1.83;;;;;;;15.89;35.71;102186.91;4914452;29;20055;-70
2023/05/03 11:01:12;;;;;;;9.18;1.92;;;;;;;15.89;35.78;102187.75;4914487;29;20048;-69
2023/05/03 11:03:50;;;;;;;10.30;2.00;;;;;;;15.33;35.67;102189.00;4913358;29;20062;-69
2023/05/03 11:06:26;;;;;;;7.40;1.95;;;;;;;15.54;35.46;102183.25;4913766;29;20103;-70
2023/05/03 11:08:53;;;;;;;8.75;1.85;;;;;;;15.44;36.09;102187.91;4913986;29;20048;-71
2023/05/03 11:11:20;;;;;;;7.97;1.80;;;;;;;15.39;36.43;102187.50;4913734;29;20493;-68
2023/05/03 11:13:49;;;;;;;25.17;5.15;;;;;;;14.59;36.24;102181.94;4913911;29;20052;-69
2023/05/03 11:16:16;;;;;;;9.07;2.10;;;;;;;14.56;36.91;102181.41;4913405;29;20048;-69
2023/05/03 11:18:44;;;;;;;6.05;1.63;;;;;;;14.14;37.94;102181.88;4914399;29;20513;-66
2023/05/03 11:21:11;;;;;;;19.58;2.85;;;;;;;13.49;38.63;102187.13;4913117;29;20458;-70
2023/05/03 11:23:38;;;;;;;15.25;2.00;;;;;;;13.81;37.90;102182.28;4913750;29;20048;-68
2023/05/03 11:26:05;;;;;;;14.93;2.83;;;;;;;14.54;37.69;102181.56;4912628;29;20130;-70
2023/05/03 11:28:32;;;;;;;4.53;1.30;;;;;;;15.33;36.02;102183.59;4913172;29;20052;-69
2023/05/03 11:31:00;;;;;;;5.32;1.60;;;;;;;15.89;35.99;102176.06;4914001;29;20120;-69